Time;durP1;ratioP1;P1;durP2;ratioP2;P2;SDS_P1;SDS_P2;PMS_P1;PMS_P2;Temp;Humidity;BMP_temperature;BMP_pressure;BME280_temperature;BME280_humidity;BME280_pressure;Samples;Min_cycle;Max_cycle;Signal;HPM_P1;HPM_P2
2022/08/05 00:01:26;;;;;;;1.05;0.77;;;24.20;90.10;;;;;;5036219;27;45410;-67
2022/08/05 00:03:53;;;;;;;1.70;1.08;;;24.20;90.10;;;;;;5038725;28;45254;-67
2022/08/05 00:06:19;;;;;;;0.90;0.73;;;24.30;90.10;;;;;;5030163;27;45401;-67
2022/08/05 00:08:46;;;;;;;1.63;1.10;;;24.20;90.10;;;;;;5028341;28;47750;-67
2022/08/05 00:11:14;;;;;;;1.50;1.00;;;24.30;90.10;;;;;;5031167;28;45408;-67
2022/08/05 00:13:44;;;;;;;0.90;0.68;;;24.20;90.10;;;;;;5020792;28;45428;-68
2022/08/05 00:16:15;;;;;;;3.22;0.82;;;24.20;90.10;;;;;;5019357;28;45291;-67
2022/08/05 00:18:44;;;;;;;1.40;0.90;;;24.20;90.10;;;;;;5040077;28;45287;-67
2022/08/05 00:21:11;;;;;;;1.30;1.02;;;24.20;90.10;;;;;;5040255;28;45349;-67
2022/08/05 00:23:38;;;;;;;1.20;0.80;;;24.20;90.00;;;;;;5039921;28;45446;-67
2022/08/05 00:26:06;;;;;;;1.38;1.00;;;24.20;90.10;;;;;;5039281;27;45607;-67
2022/08/05 00:28:33;;;;;;;1.65;1.10;;;24.20;90.00;;;;;;5040175;28;47079;-67
2022/08/05 00:31:00;;;;;;;1.23;0.88;;;24.20;90.00;;;;;;5050043;27;45461;-67
2022/08/05 00:33:28;;;;;;;1.75;0.95;;;24.20;90.00;;;;;;5045907;28;45312;-67
2022/08/05 00:35:55;;;;;;;1.08;0.98;;;24.20;90.10;;;;;;5036961;28;45210;-67
2022/08/05 00:38:22;;;;;;;1.20;0.93;;;24.20;90.00;;;;;;5037260;28;46495;-66
2022/08/05 00:40:51;;;;;;;1.27;0.85;;;24.20;90.00;;;;;;5036980;28;45340;-67
2022/08/05 00:43:18;;;;;;;1.15;0.90;;;24.20;90.10;;;;;;5036601;28;45469;-66
2022/08/05 00:45:46;;;;;;;1.70;0.88;;;24.20;90.00;;;;;;5030172;28;45526;-67
2022/08/05 00:48:15;;;;;;;0.95;0.85;;;24.20;90.00;;;;;;5035870;27;47241;-67
2022/08/05 00:50:45;;;;;;;0.85;0.60;;;24.20;90.00;;;;;;5036172;28;45465;-67
2022/08/05 00:53:12;;;;;;;1.75;0.82;;;24.20;90.00;;;;;;5037067;27;45290;-67
2022/08/05 00:55:39;;;;;;;1.05;0.90;;;24.20;90.00;;;;;;5036804;28;45551;-67
2022/08/05 00:58:06;;;;;;;1.92;1.08;;;24.20;90.00;;;;;;5036914;27;46581;-67
2022/08/05 01:00:33;;;;;;;1.45;0.80;;;24.20;90.00;;;;;;5036439;27;45446;-67
2022/08/05 01:02:59;;;;;;;0.70;0.70;;;24.20;90.00;;;;;;5037375;28;45642;-67
2022/08/05 01:05:27;;;;;;;1.50;0.90;;;24.20;90.00;;;;;;5037575;28;45473;-67
2022/08/05 01:07:55;;;;;;;1.88;1.02;;;24.20;90.00;;;;;;5036414;28;46107;-67
2022/08/05 01:10:29;;;;;;;1.10;0.80;;;24.20;90.00;;;;;;5037223;28;45505;-67
2022/08/05 01:13:03;;;;;;;1.92;1.02;;;24.20;90.00;;;;;;5038522;28;45483;-67
2022/08/05 01:15:39;;;;;;;1.92;1.10;;;24.20;90.00;;;;;;5027379;28;45394;-67
2022/08/05 01:18:12;;;;;;;0.95;0.80;;;24.20;90.10;;;;;;5036345;27;45547;-67
2022/08/05 01:20:48;;;;;;;2.65;1.10;;;24.10;90.00;;;;;;5036651;28;45472;-67
2022/08/05 01:23:29;;;;;;;2.45;0.90;;;24.20;90.10;;;;;;5037073;28;45318;-68
2022/08/05 01:26:21;;;;;;;1.02;0.70;;;24.20;90.10;;;;;;5033501;28;45412;-67
2022/08/05 01:28:55;;;;;;;1.25;0.90;;;24.10;90.00;;;;;;5032798;28;48816;-67
2022/08/05 01:31:29;;;;;;;1.48;1.00;;;24.10;90.00;;;;;;5036106;28;45427;-68
2022/08/05 01:34:02;;;;;;;1.63;1.08;;;24.10;90.00;;;;;;5037621;27;45336;-67
2022/08/05 01:36:32;;;;;;;1.80;0.95;;;24.10;90.00;;;;;;5037228;28;45286;-66
2022/08/05 01:38:59;;;;;;;0.70;0.70;;;24.10;90.00;;;;;;5037571;27;46985;-67
2022/08/05 01:41:30;;;;;;;0.90;0.90;;;24.10;90.00;;;;;;5037586;28;45298;-67
2022/08/05 01:44:00;;;;;;;1.50;1.17;;;24.10;90.00;;;;;;5035747;28;45391;-67
2022/08/05 01:46:30;;;;;;;1.13;0.80;;;24.10;90.00;;;;;;5036842;27;45509;-67
2022/08/05 01:49:00;;;;;;;2.58;0.82;;;24.10;90.00;;;;;;5036260;27;46376;-67
2022/08/05 01:51:27;;;;;;;1.80;1.15;;;24.10;90.00;;;;;;5035538;28;45355;-67
2022/08/05 01:53:56;;;;;;;1.70;1.08;;;24.10;90.00;;;;;;5030325;27;45373;-67
2022/08/05 01:56:24;;;;;;;1.13;0.90;;;24.10;90.00;;;;;;5029814;28;45387;-67
2022/08/05 01:58:52;;;;;;;1.83;0.90;;;24.10;90.00;;;;;;5036853;28;46152;-67
2022/08/05 02:01:23;;;;;;;1.20;1.00;;;24.10;90.00;;;;;;5038631;28;45337;-67
2022/08/05 02:03:53;;;;;;;1.10;0.90;;;24.10;90.00;;;;;;5038800;28;45367;-66
2022/08/05 02:06:20;;;;;;;2.40;1.00;;;24.10;90.00;;;;;;5038348;28;45327;-67
2022/08/05 02:08:47;;;;;;;2.22;1.10;;;24.20;90.10;;;;;;5052901;28;45270;-67
2022/08/05 02:11:16;;;;;;;1.67;1.02;;;24.10;90.00;;;;;;5024568;28;45293;-67
2022/08/05 02:13:50;;;;;;;1.35;0.85;;;24.10;90.10;;;;;;5040646;28;45542;-67
2022/08/05 02:16:22;;;;;;;1.40;1.10;;;24.10;90.50;;;;;;5039424;28;45527;-67
2022/08/05 02:18:52;;;;;;;3.72;1.33;;;24.10;90.90;;;;;;5035383;28;47456;-67
2022/08/05 02:21:22;;;;;;;1.65;0.95;;;24.10;91.30;;;;;;5021993;28;45574;-67
2022/08/05 02:23:53;;;;;;;1.90;1.13;;;24.10;91.70;;;;;;5030661;28;45449;-68
2022/08/05 02:26:24;;;;;;;0.93;0.90;;;24.10;92.10;;;;;;5038550;28;45326;-67
2022/08/05 02:28:52;;;;;;;2.83;1.30;;;24.10;91.60;;;;;;5039522;28;45312;-67
2022/08/05 02:31:26;;;;;;;2.53;1.35;;;24.10;91.60;;;;;;5037610;28;45592;-68
2022/08/05 02:33:58;;;;;;;1.48;1.10;;;24.00;92.10;;;;;;5032662;28;45494;-67
2022/08/05 02:36:26;;;;;;;1.80;1.20;;;24.00;91.80;;;;;;5040304;27;45333;-67
2022/08/05 02:38:54;;;;;;;2.20;1.15;;;24.00;92.10;;;;;;5040196;28;45643;-67
2022/08/05 02:41:23;;;;;;;1.77;1.08;;;24.00;92.00;;;;;;5041566;28;46278;-67
2022/08/05 02:43:51;;;;;;;1.73;1.13;;;24.00;91.90;;;;;;5041814;28;45286;-67
2022/08/05 02:46:22;;;;;;;1.65;1.10;;;24.00;92.00;;;;;;5037896;28;45403;-67
2022/08/05 02:48:50;;;;;;;2.22;1.25;;;24.00;91.90;;;;;;5039072;28;47100;-67
2022/08/05 02:51:18;;;;;;;1.63;1.17;;;24.00;91.90;;;;;;5030889;28;45390;-68
2022/08/05 02:53:46;;;;;;;2.33;1.38;;;24.00;92.00;;;;;;5039787;28;45527;-67
2022/08/05 02:56:15;;;;;;;2.00;1.23;;;24.00;92.00;;;;;;5044326;28;45483;-67
2022/08/05 02:58:43;;;;;;;2.00;1.30;;;24.00;92.00;;;;;;5038322;28;47188;-67
2022/08/05 03:01:16;;;;;;;1.42;1.15;;;24.00;92.20;;;;;;5038167;28;45339;-66
2022/08/05 03:03:49;;;;;;;1.38;1.27;;;24.00;92.20;;;;;;5038865;28;45517;-67
2022/08/05 03:06:17;;;;;;;1.10;1.00;;;24.00;92.10;;;;;;5036843;28;45503;-68
2022/08/05 03:08:44;;;;;;;1.67;1.23;;;24.00;92.20;;;;;;5032490;28;48048;-67
2022/08/05 03:11:18;;;;;;;1.23;1.00;;;24.00;92.20;;;;;;5031630;28;45301;-67
2022/08/05 03:13:45;;;;;;;1.55;1.10;;;24.00;92.50;;;;;;5038953;28;45408;-67
2022/08/05 03:16:12;;;;;;;3.42;1.20;;;24.00;92.40;;;;;;5027975;27;45323;-68
2022/08/05 03:18:39;;;;;;;1.55;1.25;;;24.00;92.50;;;;;;5020214;28;46331;-67
2022/08/05 03:21:07;;;;;;;2.05;1.38;;;24.00;92.70;;;;;;5038539;28;45325;-68
2022/08/05 03:23:36;;;;;;;2.28;1.30;;;24.00;92.60;;;;;;5039617;28;45232;-68
2022/08/05 03:26:03;;;;;;;1.40;1.30;;;24.00;92.30;;;;;;5038266;28;45496;-68
2022/08/05 03:28:31;;;;;;;1.13;1.02;;;24.00;92.50;;;;;;5028406;28;45457;-67
2022/08/05 03:30:59;;;;;;;2.38;1.38;;;24.00;92.70;;;;;;5038284;28;45271;-67
2022/08/05 03:33:28;;;;;;;1.23;1.10;;;24.00;92.50;;;;;;5031528;28;45489;-67
2022/08/05 03:35:56;;;;;;;1.90;1.35;;;24.00;92.60;;;;;;5039564;27;45317;-66
2022/08/05 03:38:24;;;;;;;1.80;1.15;;;24.00;92.60;;;;;;5037042;28;46690;-68
2022/08/05 03:40:52;;;;;;;1.17;1.05;;;24.00;92.70;;;;;;5038512;27;45671;-67
2022/08/05 03:43:19;;;;;;;2.20;1.00;;;24.00;92.70;;;;;;5038536;27;45553;-67
2022/08/05 03:45:46;;;;;;;1.35;1.20;;;24.00;92.60;;;;;;5038334;28;45395;-67
2022/08/05 03:48:13;;;;;;;1.40;1.20;;;24.00;93.10;;;;;;5036225;28;45558;-67
2022/08/05 03:50:44;;;;;;;1.30;1.20;;;24.00;92.70;;;;;;5038279;28;45276;-67
2022/08/05 03:53:15;;;;;;;1.35;1.25;;;24.00;92.80;;;;;;5035041;28;45454;-68
2022/08/05 03:55:52;;;;;;;1.98;1.23;;;24.00;92.70;;;;;;5037527;27;45936;-67
2022/08/05 03:58:21;;;;;;;2.03;1.30;;;24.00;92.80;;;;;;5042619;27;48034;-67
2022/08/05 04:00:49;;;;;;;2.13;1.45;;;24.00;92.70;;;;;;5064763;27;45329;-67
2022/08/05 04:03:18;;;;;;;1.33;1.23;;;24.00;92.70;;;;;;5040408;27;45572;-69
2022/08/05 04:05:45;;;;;;;1.75;1.38;;;24.00;92.50;;;;;;5036586;28;45534;-68
2022/08/05 04:08:13;;;;;;;2.22;1.58;;;24.00;92.80;;;;;;5036072;28;45687;-68
2022/08/05 04:10:41;;;;;;;1.05;0.98;;;24.00;92.80;;;;;;5040113;27;45430;-67
2022/08/05 04:13:09;;;;;;;1.30;1.20;;;24.10;93.00;;;;;;5032465;27;45301;-67
2022/08/05 04:15:36;;;;;;;1.83;1.20;;;24.00;93.10;;;;;;5036242;27;45401;-67
2022/08/05 04:18:04;;;;;;;1.42;1.00;;;24.10;93.10;;;;;;5042306;27;46043;-67
2022/08/05 04:20:31;;;;;;;1.60;1.40;;;24.00;92.80;;;;;;5036424;28;45561;-66
2022/08/05 04:22:57;;;;;;;1.30;1.20;;;24.10;92.90;;;;;;5038397;28;45448;-68
2022/08/05 04:25:25;;;;;;;2.60;1.50;;;24.10;92.30;;;;;;5035286;28;45811;-67
2022/08/05 04:27:52;;;;;;;1.63;1.45;;;24.10;92.40;;;;;;5035755;28;46385;-67
2022/08/05 04:30:20;;;;;;;1.67;1.30;;;24.10;91.80;;;;;;5033400;27;45471;-67
2022/08/05 04:32:46;;;;;;;1.75;1.50;;;24.10;91.60;;;;;;5030400;28;45516;-67
2022/08/05 04:35:13;;;;;;;2.72;1.42;;;24.10;91.70;;;;;;5074059;27;45314;-66
2022/08/05 04:37:40;;;;;;;1.60;1.50;;;24.20;91.60;;;;;;5029610;28;47503;-69
2022/08/05 04:40:09;;;;;;;1.55;1.45;;;24.20;91.50;;;;;;5036736;28;45281;-67
2022/08/05 04:42:35;;;;;;;1.70;1.60;;;24.10;91.40;;;;;;5037128;27;45452;-67
2022/08/05 04:45:02;;;;;;;1.85;1.58;;;24.20;91.40;;;;;;5033515;27;45613;-67
2022/08/05 04:47:31;;;;;;;2.25;1.85;;;24.20;91.30;;;;;;5043315;27;46092;-68
2022/08/05 04:49:57;;;;;;;1.77;1.67;;;24.10;91.10;;;;;;5039327;27;45461;-67
2022/08/05 04:52:24;;;;;;;1.80;1.55;;;24.10;91.00;;;;;;5043312;28;45340;-67
2022/08/05 04:54:51;;;;;;;3.17;1.85;;;24.10;91.00;;;;;;5043084;28;45413;-68
2022/08/05 04:57:17;;;;;;;1.80;1.70;;;24.10;91.20;;;;;;5037625;28;46585;-67
2022/08/05 04:59:44;;;;;;;2.13;1.70;;;24.10;91.30;;;;;;5037577;28;45316;-68
2022/08/05 05:02:11;;;;;;;2.78;2.10;;;24.10;91.40;;;;;;5035816;28;45336;-67
2022/08/05 05:04:39;;;;;;;1.75;1.63;;;24.10;91.60;;;;;;5037732;28;45487;-67
2022/08/05 05:07:06;;;;;;;2.78;2.13;;;24.10;91.70;;;;;;5036726;27;46404;-67
2022/08/05 05:09:33;;;;;;;2.58;2.22;;;24.10;91.90;;;;;;5032311;27;45478;-67
2022/08/05 05:12:00;;;;;;;2.65;2.33;;;24.10;91.70;;;;;;5036778;28;45633;-67
2022/08/05 05:14:27;;;;;;;3.38;2.53;;;24.10;91.80;;;;;;5033244;28;45655;-67
2022/08/05 05:16:54;;;;;;;3.15;2.78;;;24.20;91.80;;;;;;5032166;28;45491;-67
2022/08/05 05:19:20;;;;;;;4.13;2.60;;;24.10;91.70;;;;;;5040643;27;45389;-67
2022/08/05 05:21:49;;;;;;;2.83;2.42;;;24.20;91.70;;;;;;5036311;28;45353;-68
2022/08/05 05:24:15;;;;;;;3.17;2.72;;;24.10;91.70;;;;;;5036022;28;45299;-67
2022/08/05 05:26:42;;;;;;;3.67;2.92;;;24.10;91.70;;;;;;5030477;28;47120;-67
2022/08/05 05:29:09;;;;;;;3.55;2.85;;;24.20;91.80;;;;;;5033939;27;45362;-67
2022/08/05 05:31:37;;;;;;;4.05;3.13;;;24.20;91.70;;;;;;5034395;28;45421;-68
2022/08/05 05:34:04;;;;;;;3.67;2.85;;;24.20;91.70;;;;;;5036802;28;45348;-68
2022/08/05 05:36:31;;;;;;;4.20;3.58;;;24.20;91.80;;;;;;5036670;28;45425;-67
2022/08/05 05:38:59;;;;;;;3.22;2.83;;;24.20;91.60;;;;;;5036761;28;45958;-67
2022/08/05 05:41:26;;;;;;;4.28;3.55;;;24.20;91.60;;;;;;5031817;28;45356;-69
2022/08/05 05:43:52;;;;;;;3.83;3.30;;;24.20;91.60;;;;;;5038588;27;45470;-67
2022/08/05 05:46:20;;;;;;;3.58;3.08;;;24.20;91.60;;;;;;5039321;28;46203;-67
2022/08/05 05:48:47;;;;;;;3.72;2.90;;;24.20;91.60;;;;;;5045732;27;46481;-68
2022/08/05 05:51:19;;;;;;;3.42;3.00;;;24.20;91.60;;;;;;5040286;27;45286;-68
2022/08/05 05:53:45;;;;;;;4.30;3.72;;;24.20;91.70;;;;;;5037975;27;45471;-67
2022/08/05 05:56:14;;;;;;;5.07;4.15;;;24.20;91.70;;;;;;5043161;28;46612;-68
2022/08/05 05:58:40;;;;;;;4.60;3.78;;;24.20;91.70;;;;;;5041293;27;46188;-67
2022/08/05 06:01:07;;;;;;;3.85;3.45;;;24.20;91.70;;;;;;5040879;28;45371;-67
2022/08/05 06:03:36;;;;;;;3.28;2.97;;;24.20;91.70;;;;;;5034171;28;45306;-68
2022/08/05 06:06:05;;;;;;;4.70;3.30;;;24.20;91.70;;;;;;5035818;28;46507;-69
2022/08/05 06:08:32;;;;;;;3.67;3.30;;;24.20;91.70;;;;;;5034942;28;45386;-67
2022/08/05 06:10:58;;;;;;;3.25;2.88;;;24.20;91.70;;;;;;5037083;28;45620;-67
2022/08/05 06:13:27;;;;;;;3.40;2.90;;;24.20;91.70;;;;;;5036112;28;45623;-67
2022/08/05 06:15:53;;;;;;;4.40;4.00;;;24.20;91.70;;;;;;5042348;27;46265;-68
2022/08/05 06:18:20;;;;;;;4.70;3.80;;;24.20;91.80;;;;;;5037774;28;45365;-67
2022/08/05 06:20:47;;;;;;;4.88;3.90;;;24.20;91.90;;;;;;5037009;27;45787;-67
2022/08/05 06:23:14;;;;;;;5.22;4.28;;;24.20;92.00;;;;;;5037249;27;45435;-68
2022/08/05 06:25:40;;;;;;;4.72;3.83;;;24.20;92.10;;;;;;5036133;28;45351;-68
2022/08/05 06:28:07;;;;;;;6.50;4.65;;;24.20;92.10;;;;;;5034914;27;45562;-67
2022/08/05 06:30:35;;;;;;;5.43;4.50;;;24.20;92.10;;;;;;5039688;27;45413;-67
2022/08/05 06:33:02;;;;;;;4.68;3.80;;;24.20;92.10;;;;;;5042330;28;45503;-67
2022/08/05 06:35:29;;;;;;;4.22;3.63;;;24.20;92.10;;;;;;5036172;27;46333;-68
2022/08/05 06:37:55;;;;;;;7.40;4.13;;;24.20;92.20;;;;;;5042035;28;45489;-67
2022/08/05 06:40:23;;;;;;;7.82;4.00;;;24.20;92.00;;;;;;5035895;28;45487;-68
2022/08/05 06:42:50;;;;;;;5.68;3.85;;;24.20;92.10;;;;;;5039310;28;45520;-68
2022/08/05 06:45:17;;;;;;;4.50;3.70;;;24.10;92.00;;;;;;5042040;27;48064;-68
2022/08/05 06:47:45;;;;;;;6.57;3.50;;;24.20;92.10;;;;;;5044838;27;45303;-67
2022/08/05 06:50:11;;;;;;;5.60;4.03;;;24.10;91.80;;;;;;5041248;28;45433;-68
2022/08/05 06:52:38;;;;;;;6.15;3.45;;;24.10;91.80;;;;;;5043309;28;45261;-67
2022/08/05 06:55:05;;;;;;;5.90;3.97;;;24.20;91.80;;;;;;5038148;28;45299;-67
2022/08/05 06:57:32;;;;;;;6.53;3.60;;;24.10;91.70;;;;;;5031912;27;45323;-67
2022/08/05 06:59:59;;;;;;;4.82;3.75;;;24.10;91.60;;;;;;5040414;28;45312;-67
2022/08/05 07:02:26;;;;;;;3.97;3.13;;;24.10;91.70;;;;;;5037273;28;45779;-68
2022/08/05 07:04:54;;;;;;;5.50;3.40;;;24.10;91.60;;;;;;5039193;28;45389;-67
2022/08/05 07:07:20;;;;;;;5.15;3.35;;;24.20;91.70;;;;;;5036989;28;45306;-67
2022/08/05 07:09:47;;;;;;;4.10;3.25;;;24.10;91.60;;;;;;5039466;28;45246;-67
2022/08/05 07:17:39;;;;;;;4.40;3.45;;;24.10;91.50;;;;;;5040041;27;45478;-67
2022/08/05 07:20:08;;;;;;;4.45;3.13;;;24.10;91.40;;;;;;5047107;28;45487;-68
2022/08/05 07:22:35;;;;;;;4.20;3.45;;;24.20;91.70;;;;;;5042588;27;45620;-67
2022/08/05 07:25:02;;;;;;;4.65;3.40;;;24.10;91.40;;;;;;5046526;28;47235;-69
2022/08/05 07:27:28;;;;;;;4.60;3.10;;;24.10;91.40;;;;;;5042877;28;45335;-67
2022/08/05 07:29:57;;;;;;;4.82;3.03;;;24.10;91.40;;;;;;5039367;27;45349;-67
2022/08/05 07:32:24;;;;;;;3.53;2.63;;;24.10;91.40;;;;;;5038341;28;45349;-67
2022/08/05 07:34:52;;;;;;;4.18;2.88;;;24.10;91.50;;;;;;5041187;27;45453;-68
2022/08/05 07:37:20;;;;;;;3.63;2.63;;;24.10;91.50;;;;;;5044349;27;46279;-67
2022/08/05 07:39:47;;;;;;;3.40;2.53;;;24.10;91.40;;;;;;5043393;27;45457;-67
2022/08/05 07:42:14;;;;;;;4.50;3.00;;;24.10;91.50;;;;;;5038205;28;45597;-68
2022/08/05 07:44:41;;;;;;;4.85;2.78;;;24.10;91.30;;;;;;5038592;28;46578;-67
2022/08/05 07:47:08;;;;;;;5.03;2.63;;;24.10;91.40;;;;;;5037126;27;45686;-67
2022/08/05 07:49:35;;;;;;;3.45;2.38;;;24.10;91.40;;;;;;5040899;27;45379;-67
2022/08/05 07:52:01;;;;;;;4.20;2.38;;;24.10;91.40;;;;;;5038143;28;45403;-69
2022/08/05 07:54:30;;;;;;;2.65;2.00;;;24.10;91.40;;;;;;5039505;27;46095;-67
2022/08/05 07:56:56;;;;;;;3.75;2.35;;;24.10;91.30;;;;;;5045982;28;45548;-68
2022/08/05 07:59:23;;;;;;;3.78;2.20;;;24.10;91.20;;;;;;5038176;28;45428;-68
2022/08/05 08:01:51;;;;;;;3.42;1.95;;;24.10;91.10;;;;;;5037287;28;45352;-67
2022/08/05 08:04:17;;;;;;;3.47;2.50;;;24.10;91.10;;;;;;5037287;27;47556;-67
2022/08/05 08:06:44;;;;;;;3.42;2.17;;;24.10;91.10;;;;;;5037986;28;45411;-69
2022/08/05 08:09:11;;;;;;;1.98;1.77;;;24.10;91.10;;;;;;5038379;28;45401;-68
2022/08/05 08:11:39;;;;;;;3.83;2.05;;;24.10;91.10;;;;;;5034917;28;45570;-67
2022/08/05 08:14:06;;;;;;;3.90;2.00;;;24.10;91.10;;;;;;5026054;28;46543;-68
2022/08/05 08:16:33;;;;;;;1.63;1.52;;;24.10;91.00;;;;;;5028468;28;45373;-68
2022/08/05 08:18:59;;;;;;;2.45;1.90;;;24.10;91.00;;;;;;5037963;28;45277;-67
2022/08/05 08:21:26;;;;;;;3.65;1.80;;;24.10;91.00;;;;;;5037969;28;45462;-68
2022/08/05 08:23:53;;;;;;;2.17;1.70;;;24.10;90.90;;;;;;5038828;28;46272;-67
2022/08/05 08:26:20;;;;;;;2.58;1.80;;;24.10;90.90;;;;;;5036881;28;45356;-67
2022/08/05 08:28:49;;;;;;;2.72;1.60;;;24.10;90.90;;;;;;5043718;27;45394;-68
2022/08/05 08:31:17;;;;;;;2.55;1.48;;;24.10;90.90;;;;;;5040315;27;45486;-68
2022/08/05 08:33:43;;;;;;;2.47;1.60;;;24.10;90.80;;;;;;5037737;27;46444;-68
2022/08/05 08:36:10;;;;;;;2.63;1.60;;;24.10;90.80;;;;;;5036500;28;45289;-67
2022/08/05 08:38:37;;;;;;;1.90;1.50;;;24.10;90.80;;;;;;5038048;28;45305;-67
2022/08/05 08:41:07;;;;;;;2.60;1.50;;;24.10;90.80;;;;;;5035656;28;45345;-68
2022/08/05 08:43:34;;;;;;;2.67;1.55;;;24.10;90.70;;;;;;5030936;28;45320;-68
2022/08/05 08:46:04;;;;;;;2.40;1.50;;;24.10;90.70;;;;;;5041479;28;45365;-69
2022/08/05 08:48:32;;;;;;;2.42;1.63;;;24.10;90.70;;;;;;5034531;27;45389;-67
2022/08/05 08:51:00;;;;;;;2.45;1.67;;;24.10;90.80;;;;;;5040717;27;45601;-67
2022/08/05 08:53:28;;;;;;;1.60;1.50;;;24.10;90.70;;;;;;5045090;27;46607;-67
2022/08/05 08:55:55;;;;;;;3.30;1.60;;;24.10;90.80;;;;;;5038146;28;45622;-67
2022/08/05 08:58:22;;;;;;;1.92;1.40;;;24.10;90.80;;;;;;5037100;28;45273;-68
2022/08/05 09:00:50;;;;;;;2.17;1.48;;;24.10;90.60;;;;;;5038416;28;45421;-67
2022/08/05 09:03:19;;;;;;;2.08;1.38;;;24.00;90.70;;;;;;5035425;27;46631;-67
2022/08/05 09:05:47;;;;;;;2.63;1.58;;;24.10;90.60;;;;;;5037861;28;45350;-68
2022/08/05 09:08:14;;;;;;;1.63;1.30;;;24.00;90.50;;;;;;5036688;28;45371;-67
2022/08/05 09:10:43;;;;;;;1.70;1.60;;;24.00;90.60;;;;;;5038284;27;45487;-67
2022/08/05 09:13:10;;;;;;;2.47;1.40;;;24.10;90.60;;;;;;5037495;27;47019;-67
2022/08/05 09:15:38;;;;;;;2.25;1.40;;;24.00;90.60;;;;;;5036313;27;45812;-67
2022/08/05 09:18:08;;;;;;;1.98;1.30;;;24.00;90.50;;;;;;5035221;28;45301;-68
2022/08/05 09:20:36;;;;;;;2.15;1.27;;;24.10;90.90;;;;;;5030652;27;45622;-67
2022/08/05 09:23:10;;;;;;;1.77;1.23;;;24.10;90.40;;;;;;5036923;28;45483;-67
2022/08/05 09:25:39;;;;;;;2.42;1.05;;;24.10;90.40;;;;;;5033405;28;45455;-67
2022/08/05 09:28:13;;;;;;;1.60;1.10;;;24.10;90.40;;;;;;5035586;28;45398;-67
2022/08/05 09:30:43;;;;;;;3.85;1.60;;;24.10;90.40;;;;;;5031981;28;45485;-67
2022/08/05 09:33:10;;;;;;;1.05;0.90;;;24.10;90.40;;;;;;5045162;28;46334;-67
2022/08/05 09:35:53;;;;;;;1.65;1.20;;;24.10;90.40;;;;;;5043880;27;45550;-67
2022/08/05 09:38:20;;;;;;;2.05;1.02;;;24.10;90.40;;;;;;5035674;28;45365;-68
2022/08/05 09:40:47;;;;;;;2.00;1.13;;;24.10;90.40;;;;;;5037135;28;45609;-68
2022/08/05 09:43:27;;;;;;;2.35;1.30;;;24.10;90.40;;;;;;5044274;28;46478;-67
2022/08/05 09:45:53;;;;;;;2.38;1.30;;;24.10;90.30;;;;;;5043136;27;46348;-67
2022/08/05 09:48:25;;;;;;;2.13;1.20;;;24.10;90.30;;;;;;5032854;28;45321;-67
2022/08/05 09:50:56;;;;;;;1.27;1.02;;;24.10;90.20;;;;;;5036912;27;45609;-67
2022/08/05 09:53:23;;;;;;;2.05;1.10;;;24.10;90.20;;;;;;5036604;28;47058;-67
2022/08/05 09:55:56;;;;;;;1.63;1.15;;;24.10;90.20;;;;;;5037024;28;46170;-67
2022/08/05 09:58:23;;;;;;;2.22;1.10;;;24.10;90.20;;;;;;5035585;27;45503;-67
2022/08/05 10:00:55;;;;;;;3.03;1.20;;;24.10;90.10;;;;;;5037071;27;45525;-67
2022/08/05 10:03:23;;;;;;;1.20;0.98;;;24.10;90.10;;;;;;5038085;27;48454;-67
2022/08/05 10:06:03;;;;;;;1.60;1.17;;;24.10;90.10;;;;;;5046124;27;45351;-67
2022/08/05 10:08:30;;;;;;;1.75;1.08;;;24.10;90.10;;;;;;5036514;28;45326;-67
2022/08/05 10:10:58;;;;;;;1.98;1.20;;;24.10;90.20;;;;;;5037638;28;45383;-67
2022/08/05 10:13:30;;;;;;;1.63;1.15;;;24.10;90.10;;;;;;5035646;28;47719;-67
2022/08/05 10:15:59;;;;;;;2.35;1.27;;;24.10;90.10;;;;;;5036413;28;46198;-68
2022/08/05 10:18:27;;;;;;;1.65;0.95;;;24.10;90.00;;;;;;5035853;27;45386;-68
2022/08/05 10:20:56;;;;;;;1.95;1.10;;;24.10;90.00;;;;;;5037340;28;45549;-68
2022/08/05 10:23:27;;;;;;;2.30;1.23;;;24.10;90.00;;;;;;5035533;28;48136;-67
2022/08/05 10:25:55;;;;;;;3.00;1.15;;;24.10;90.00;;;;;;5037401;28;45401;-67
2022/08/05 10:28:23;;;;;;;1.75;1.20;;;24.10;89.90;;;;;;5033892;28;45485;-67
2022/08/05 10:30:51;;;;;;;3.55;1.48;;;24.10;89.90;;;;;;5042154;27;45527;-67
2022/08/05 10:33:18;;;;;;;2.80;1.30;;;24.10;89.90;;;;;;5042226;28;46474;-68
2022/08/05 10:35:45;;;;;;;1.77;1.00;;;24.10;89.80;;;;;;5038935;28;45256;-68
2022/08/05 10:38:13;;;;;;;2.03;1.20;;;24.10;89.80;;;;;;5037952;28;45319;-67
2022/08/05 10:40:46;;;;;;;1.40;1.00;;;24.10;89.80;;;;;;5039691;28;45399;-67
2022/08/05 10:43:24;;;;;;;1.35;1.20;;;24.10;89.60;;;;;;5037752;28;45592;-67
2022/08/05 10:45:58;;;;;;;2.38;0.98;;;24.10;89.60;;;;;;5046492;28;45608;-67
2022/08/05 10:48:33;;;;;;;1.42;1.23;;;24.10;89.60;;;;;;5040743;28;45386;-67
2022/08/05 10:51:02;;;;;;;1.85;0.98;;;24.10;89.50;;;;;;5039880;28;45309;-67
2022/08/05 10:53:44;;;;;;;2.08;1.20;;;24.10;89.40;;;;;;5038765;28;47568;-67
2022/08/05 10:56:16;;;;;;;1.25;0.85;;;24.10;89.30;;;;;;5036072;28;45523;-68
2022/08/05 10:59:03;;;;;;;1.63;1.00;;;24.10;89.30;;;;;;5036975;28;45330;-68
2022/08/05 11:01:32;;;;;;;1.25;0.90;;;24.10;89.30;;;;;;5037416;28;45410;-67
2022/08/05 11:04:08;;;;;;;1.40;1.08;;;24.10;89.30;;;;;;5039938;28;46622;-68
2022/08/05 11:06:55;;;;;;;1.27;1.00;;;24.10;89.30;;;;;;5032111;28;45456;-69
2022/08/05 11:09:23;;;;;;;2.90;1.00;;;24.10;89.30;;;;;;5040815;28;45447;-67
2022/08/05 11:11:52;;;;;;;1.25;0.82;;;24.10;89.20;;;;;;5042054;28;45395;-67
2022/08/05 11:14:28;;;;;;;1.70;1.13;;;24.10;89.20;;;;;;5042299;27;46316;-67
2022/08/05 11:17:37;;;;;;;1.73;0.95;;;24.10;89.10;;;;;;5044150;28;45457;-67
2022/08/05 11:20:05;;;;;;;2.50;1.08;;;24.10;89.10;;;;;;5037313;27;45616;-68
2022/08/05 11:22:41;;;;;;;1.05;0.85;;;24.10;89.00;;;;;;5037902;28;45582;-68
2022/08/05 11:25:27;;;;;;;2.50;1.30;;;24.10;88.90;;;;;;5041091;27;45414;-67
2022/08/05 11:27:55;;;;;;;2.13;1.17;;;24.10;88.90;;;;;;5039857;27;45432;-67
2022/08/05 11:30:22;;;;;;;2.00;0.93;;;24.10;89.00;;;;;;5043679;27;45580;-67
2022/08/05 11:32:49;;;;;;;1.92;1.23;;;24.10;89.00;;;;;;5046068;28;45500;-68
2022/08/05 11:35:49;;;;;;;1.60;1.00;;;24.10;89.10;;;;;;5037240;27;47247;-67
2022/08/05 11:38:16;;;;;;;1.35;1.00;;;24.10;88.90;;;;;;5044603;27;45317;-68
2022/08/05 11:41:01;;;;;;;1.90;1.13;;;24.10;88.70;;;;;;5041265;27;45396;-67
2022/08/05 11:43:30;;;;;;;1.65;1.20;;;24.10;88.60;;;;;;5042213;28;45306;-68
2022/08/05 11:45:57;;;;;;;2.40;1.00;;;24.10;88.80;;;;;;5038439;27;45484;-68
2022/08/05 11:48:25;;;;;;;1.08;0.98;;;24.10;88.80;;;;;;5042085;28;45368;-67
2022/08/05 11:50:53;;;;;;;1.80;0.85;;;24.10;88.70;;;;;;5048151;27;45714;-68
2022/08/05 11:53:20;;;;;;;2.17;0.82;;;24.10;88.60;;;;;;5041289;27;45700;-67
2022/08/05 11:55:55;;;;;;;1.25;0.90;;;24.10;88.40;;;;;;5039462;28;45461;-67
2022/08/05 11:58:30;;;;;;;1.58;0.88;;;24.10;88.30;;;;;;5038801;28;45642;-68
2022/08/05 12:01:03;;;;;;;0.80;0.80;;;24.10;88.20;;;;;;5039111;28;45640;-67
2022/08/05 12:03:30;;;;;;;1.13;0.85;;;24.10;88.10;;;;;;5039429;28;45295;-67
2022/08/05 12:06:03;;;;;;;1.38;0.82;;;24.10;88.10;;;;;;5038661;27;46382;-68
2022/08/05 12:08:30;;;;;;;1.70;0.90;;;24.20;88.30;;;;;;5038035;28;45277;-67
2022/08/05 12:10:59;;;;;;;1.33;0.88;;;24.10;88.20;;;;;;5038124;28;45396;-67
2022/08/05 12:13:26;;;;;;;1.27;0.80;;;24.20;88.20;;;;;;5038226;27;45252;-67
2022/08/05 12:15:54;;;;;;;1.75;0.88;;;24.10;88.10;;;;;;5038145;28;45407;-67
2022/08/05 12:18:29;;;;;;;2.15;0.90;;;24.10;87.90;;;;;;5034788;28;45347;-68
2022/08/05 12:20:55;;;;;;;1.02;0.90;;;24.10;87.90;;;;;;5034573;28;45457;-67
2022/08/05 12:23:22;;;;;;;1.05;0.77;;;24.20;88.00;;;;;;5035816;28;45562;-67
2022/08/05 12:25:50;;;;;;;1.73;0.90;;;24.10;87.80;;;;;;5039373;28;45567;-68
2022/08/05 12:28:31;;;;;;;4.47;1.10;;;24.10;87.50;;;;;;5026847;28;45732;-68
2022/08/05 12:30:59;;;;;;;4.80;1.15;;;24.20;87.60;;;;;;5029442;27;45238;-67
2022/08/05 12:33:27;;;;;;;2.50;0.90;;;24.20;87.70;;;;;;5040343;28;45202;-67
2022/08/05 12:35:55;;;;;;;2.30;1.20;;;24.20;87.80;;;;;;5046326;27;46530;-67
2022/08/05 12:38:22;;;;;;;2.50;1.10;;;24.20;87.70;;;;;;5039716;27;45406;-67
2022/08/05 12:40:49;;;;;;;3.70;1.00;;;24.20;87.60;;;;;;5038916;27;45501;-68
2022/08/05 12:43:16;;;;;;;1.98;0.95;;;24.20;87.50;;;;;;5044103;27;45193;-67
2022/08/05 12:45:53;;;;;;;8.35;1.50;;;24.20;87.30;;;;;;5038379;27;45363;-70
2022/08/05 12:48:22;;;;;;;6.60;1.98;;;24.20;87.70;;;;;;5036204;27;45375;-69
2022/08/05 12:51:12;;;;;;;9.52;1.75;;;24.20;87.60;;;;;;5044322;28;45413;-70
2022/08/05 12:53:43;;;;;;;8.10;1.40;;;24.20;87.10;;;;;;5041825;27;45478;-69
2022/08/05 12:56:18;;;;;;;2.65;0.90;;;24.20;86.60;;;;;;5044803;28;46550;-69
2022/08/05 12:58:45;;;;;;;3.85;0.85;;;24.20;86.20;;;;;;5028528;28;45338;-70
2022/08/05 13:01:15;;;;;;;1.73;1.08;;;24.20;85.90;;;;;;5030341;28;45375;-69
2022/08/05 13:03:46;;;;;;;1.75;1.10;;;24.20;85.90;;;;;;5036994;27;45612;-70